createdAt,value
2022-12-03T00:02:15.460Z,37.17
2022-12-03T00:04:35.463Z,35.17
2022-12-03T00:06:55.591Z,34.35
2022-12-03T00:09:15.224Z,39.03
2022-12-03T00:11:35.942Z,39.90
2022-12-03T00:13:56.077Z,29.42
2022-12-03T00:16:16.304Z,30.23
2022-12-03T00:18:36.288Z,29.77
2022-12-03T00:20:56.046Z,35.65
2022-12-03T00:23:15.567Z,33.10
2022-12-03T00:25:35.303Z,32.67
2022-12-03T00:27:55.264Z,28.10
2022-12-03T00:30:15.030Z,29.13
2022-12-03T00:32:35.187Z,33.42
2022-12-03T00:34:55.563Z,34.22
2022-12-03T00:37:15.389Z,32.70
2022-12-03T00:39:35.106Z,38.47
2022-12-03T00:41:54.891Z,36.83
2022-12-03T00:44:14.508Z,41.55
2022-12-03T00:46:34.368Z,50.40
2022-12-03T00:48:54.534Z,48.63
2022-12-03T00:51:14.226Z,37.88
2022-12-03T00:53:35.044Z,34.15
2022-12-03T00:55:55.163Z,31.83
2022-12-03T00:58:14.811Z,32.33
2022-12-03T01:00:35.485Z,29.70
2022-12-03T01:02:55.435Z,31.58
2022-12-03T01:05:16.298Z,30.83
2022-12-03T01:07:36.345Z,31.55
2022-12-03T01:09:56.337Z,30.35
2022-12-03T01:12:16.437Z,29.13
2022-12-03T01:14:36.266Z,30.08
2022-12-03T01:16:55.845Z,30.13
2022-12-03T01:19:16.285Z,31.05
2022-12-03T01:21:36.995Z,164.07
2022-12-03T01:23:56.885Z,38.22
2022-12-03T01:26:16.682Z,40.10
2022-12-03T01:28:36.436Z,34.90
2022-12-03T01:31:14.594Z,34.88
2022-12-03T01:33:34.522Z,32.42
2022-12-03T01:35:54.304Z,34.63
2022-12-03T01:38:14.306Z,31.80
2022-12-03T01:40:34.231Z,30.65
2022-12-03T01:42:54.632Z,33.28
2022-12-03T01:45:22.384Z,36.60
2022-12-03T01:47:42.781Z,39.25
2022-12-03T01:50:20.122Z,55.63
2022-12-03T01:52:41.154Z,114.60
2022-12-03T01:55:05.410Z,63.78
2022-12-03T01:57:37.305Z,41.63
2022-12-03T01:59:59.039Z,38.25
2022-12-03T02:02:23.281Z,37.00
2022-12-03T02:04:43.256Z,30.90
2022-12-03T02:07:19.807Z,34.53
2022-12-03T02:09:39.701Z,34.78
2022-12-03T02:11:59.342Z,42.10
2022-12-03T02:14:21.578Z,39.15
2022-12-03T02:16:42.343Z,48.40
2022-12-03T02:19:04.086Z,42.35
2022-12-03T02:21:45.691Z,38.95
2022-12-03T02:24:28.482Z,45.80
2022-12-03T02:26:48.474Z,43.90
2022-12-03T02:29:08.141Z,34.17
2022-12-03T02:31:28.064Z,30.40
2022-12-03T02:33:48.333Z,34.25
2022-12-03T02:36:08.978Z,32.15
2022-12-03T02:38:31.203Z,32.00
2022-12-03T02:40:56.080Z,31.00
2022-12-03T02:43:18.022Z,31.38
2022-12-03T02:45:43.916Z,34.47
2022-12-03T02:48:09.621Z,33.83
2022-12-03T02:50:40.804Z,29.50
2022-12-03T02:53:04.287Z,33.40
2022-12-03T02:55:24.720Z,33.00
2022-12-03T02:57:47.471Z,34.55
2022-12-03T03:00:10.161Z,31.52
2022-12-03T03:04:50.232Z,32.42
2022-12-03T03:07:10.888Z,58.03
2022-12-03T03:09:32.085Z,47.22
2022-12-03T03:11:51.851Z,124.72
2022-12-03T03:14:11.847Z,124.88
2022-12-03T03:16:33.799Z,214.43
2022-12-03T03:18:53.862Z,110.07
2022-12-03T03:21:14.227Z,141.55
2022-12-03T03:23:34.487Z,172.00
2022-12-03T03:25:59.008Z,104.47
2022-12-03T03:28:19.066Z,87.03
2022-12-03T03:30:41.669Z,155.20
2022-12-03T03:33:01.788Z,145.50
2022-12-03T03:35:23.958Z,82.72
2022-12-03T03:37:44.013Z,178.40
2022-12-03T03:40:04.513Z,75.75
2022-12-03T03:42:24.625Z,93.38
2022-12-03T03:44:44.829Z,37.75
2022-12-03T03:47:04.622Z,38.38
2022-12-03T03:49:25.096Z,40.97
2022-12-03T03:51:45.811Z,36.03
2022-12-03T03:54:06.317Z,26.30
2022-12-03T03:56:26.509Z,25.40
2022-12-03T03:58:46.304Z,28.02
2022-12-03T04:01:07.067Z,25.25
2022-12-03T04:03:28.070Z,24.02
2022-12-03T04:05:50.639Z,26.92
2022-12-03T04:08:10.652Z,25.95
2022-12-03T04:10:49.078Z,26.38
2022-12-03T04:13:08.649Z,28.30
2022-12-03T04:15:28.452Z,24.02
2022-12-03T04:18:09.011Z,26.40
2022-12-03T04:20:28.867Z,24.45
2022-12-03T04:22:48.501Z,25.42
2022-12-03T04:25:28.134Z,21.95
2022-12-03T04:28:06.593Z,22.42
2022-12-03T04:30:26.539Z,21.17
2022-12-03T04:33:05.159Z,22.67
2022-12-03T04:35:43.469Z,20.05
2022-12-03T04:38:03.640Z,19.75
2022-12-03T04:40:41.640Z,22.88
2022-12-03T04:43:01.617Z,19.60
2022-12-03T04:45:21.681Z,21.13
2022-12-03T04:47:41.604Z,20.85
2022-12-03T04:50:01.594Z,19.90
2022-12-03T04:52:21.563Z,21.77
2022-12-03T04:54:42.010Z,21.55
2022-12-03T04:57:02.816Z,20.42
2022-12-03T04:59:22.811Z,21.45
2022-12-03T05:01:44.047Z,53.60
2022-12-03T05:04:04.316Z,40.83
2022-12-03T05:06:24.309Z,27.17
2022-12-03T05:08:44.014Z,26.23
2022-12-03T05:11:03.917Z,376.90
2022-12-03T05:13:23.556Z,498.15
2022-12-03T05:15:43.210Z,601.72
2022-12-03T05:18:03.136Z,401.70
2022-12-03T05:20:41.056Z,367.15
2022-12-03T05:23:00.975Z,236.23
2022-12-03T05:25:21.180Z,65.15
2022-12-03T05:27:41.413Z,24.67
2022-12-03T05:30:02.184Z,23.15
2022-12-03T05:32:22.301Z,27.73
2022-12-03T05:34:42.072Z,25.58
2022-12-03T05:37:01.674Z,23.50
2022-12-03T05:39:21.633Z,20.17
2022-12-03T05:41:59.876Z,18.67
2022-12-03T05:44:20.829Z,20.30
2022-12-03T05:46:40.608Z,18.70
2022-12-03T05:49:00.593Z,20.50
2022-12-03T05:51:20.831Z,21.67
2022-12-03T05:53:40.838Z,20.58
2022-12-03T05:56:00.537Z,21.85
2022-12-03T05:58:20.175Z,20.27
2022-12-03T06:00:42.705Z,21.33
2022-12-03T06:03:03.657Z,19.40
2022-12-03T06:05:24.087Z,19.17
2022-12-03T06:07:43.822Z,18.25
2022-12-03T06:10:05.435Z,17.63
2022-12-03T06:12:25.502Z,18.20
2022-12-03T06:14:45.134Z,20.52
2022-12-03T06:17:04.618Z,20.60
2022-12-03T06:19:24.179Z,21.15
2022-12-03T06:21:44.266Z,21.95
2022-12-03T06:24:04.489Z,20.67
2022-12-03T06:26:24.483Z,24.27
2022-12-03T06:28:45.977Z,24.20
2022-12-03T06:31:06.497Z,23.98
2022-12-03T06:33:26.615Z,20.95
2022-12-03T06:35:46.325Z,19.30
2022-12-03T06:38:05.961Z,25.77
2022-12-03T06:40:26.430Z,30.70
2022-12-03T06:42:46.073Z,21.70
2022-12-03T06:45:06.437Z,17.92
2022-12-03T06:47:26.333Z,17.13
2022-12-03T06:49:46.480Z,14.93
2022-12-03T06:52:06.143Z,13.57
2022-12-03T06:54:25.919Z,15.88
2022-12-03T06:56:46.547Z,17.52
2022-12-03T06:59:06.169Z,17.92
2022-12-03T07:01:26.012Z,17.35
2022-12-03T07:03:46.071Z,17.20
2022-12-03T07:06:06.091Z,15.40
2022-12-03T07:08:26.739Z,28.52
2022-12-03T07:10:47.261Z,16.05
2022-12-03T07:13:07.060Z,21.50
2022-12-03T07:15:27.094Z,13.90
2022-12-03T07:17:47.270Z,14.45
2022-12-03T07:20:08.293Z,10.93
2022-12-03T07:22:28.014Z,10.65
2022-12-03T07:24:47.560Z,12.75
2022-12-03T07:27:07.421Z,13.45
2022-12-03T07:29:27.335Z,13.35
2022-12-03T07:31:47.479Z,14.95
2022-12-03T07:34:07.421Z,14.90
2022-12-03T07:36:27.186Z,13.13
2022-12-03T07:38:47.013Z,13.20
2022-12-03T07:41:07.074Z,14.25
2022-12-03T07:43:26.573Z,15.88
2022-12-03T07:45:46.201Z,48.70
2022-12-03T07:48:06.052Z,37.67
2022-12-03T07:50:27.672Z,21.00
2022-12-03T07:52:47.573Z,18.45
2022-12-03T07:55:07.697Z,23.38
2022-12-03T07:57:27.374Z,25.17
2022-12-03T07:59:47.024Z,27.63
2022-12-03T08:02:07.848Z,31.38
2022-12-03T08:04:28.147Z,23.38
2022-12-03T08:06:48.557Z,18.65
2022-12-03T08:09:11.956Z,17.67
2022-12-03T08:11:34.546Z,40.05
2022-12-03T08:13:55.447Z,20.23
2022-12-03T08:16:18.536Z,18.30
2022-12-03T08:18:38.716Z,17.02
2022-12-03T08:20:58.825Z,30.95
2022-12-03T08:23:20.880Z,152.27
2022-12-03T08:25:44.245Z,144.07
2022-12-03T08:30:32.900Z,88.70
2022-12-03T08:32:53.285Z,89.65
2022-12-03T08:35:20.447Z,48.55
2022-12-03T08:37:40.785Z,44.63
2022-12-03T08:40:01.255Z,37.78
2022-12-03T08:42:42.396Z,25.13
2022-12-03T08:45:22.830Z,25.13
2022-12-03T08:47:42.666Z,21.88
2022-12-03T08:50:21.882Z,25.88
2022-12-03T08:52:41.510Z,21.00
2022-12-03T08:55:29.958Z,19.30
2022-12-03T08:57:50.017Z,23.90
2022-12-03T09:00:22.266Z,18.35
2022-12-03T09:02:46.989Z,17.02
2022-12-03T09:05:18.273Z,16.15
2022-12-03T09:07:37.942Z,13.68
2022-12-03T09:09:57.716Z,14.75
2022-12-03T09:12:17.079Z,16.17
2022-12-03T09:14:36.802Z,14.75
2022-12-03T09:16:57.038Z,14.88
2022-12-03T09:19:17.127Z,20.83
2022-12-03T09:21:36.808Z,22.08
2022-12-03T09:23:56.727Z,20.75
2022-12-03T09:26:16.810Z,16.52
2022-12-03T09:28:36.409Z,14.07
2022-12-03T09:30:56.270Z,14.13
2022-12-03T09:33:16.098Z,14.05
2022-12-03T09:35:36.356Z,15.38
2022-12-03T09:37:56.472Z,14.20
2022-12-03T09:40:17.327Z,12.82
2022-12-03T09:42:37.338Z,12.20
2022-12-03T09:44:57.298Z,11.30
2022-12-03T09:47:17.093Z,10.63
2022-12-03T09:49:38.226Z,29.23
2022-12-03T09:52:01.047Z,39.78
2022-12-03T09:54:25.034Z,77.90
2022-12-03T09:56:44.752Z,71.40
2022-12-03T09:59:15.445Z,72.47
2022-12-03T10:01:36.194Z,48.40
2022-12-03T10:03:56.140Z,46.83
2022-12-03T10:06:21.828Z,31.15
2022-12-03T10:08:41.951Z,31.73
2022-12-03T10:11:02.863Z,30.55
2022-12-03T10:13:29.512Z,34.72
2022-12-03T10:15:49.187Z,35.45
2022-12-03T10:18:24.341Z,35.35
2022-12-03T10:20:44.616Z,44.13
2022-12-03T10:23:05.077Z,48.25
2022-12-03T10:25:25.001Z,43.33
2022-12-03T10:28:04.587Z,30.88
2022-12-03T10:30:27.662Z,37.58
2022-12-03T10:35:40.359Z,26.55
2022-12-03T10:38:01.359Z,25.42
2022-12-03T10:40:35.012Z,23.42
2022-12-03T10:43:14.338Z,23.10
2022-12-03T10:45:34.112Z,27.88
2022-12-03T10:48:11.837Z,34.53
2022-12-03T10:50:32.962Z,24.48
2022-12-03T10:52:52.864Z,23.27
2022-12-03T10:55:14.161Z,22.58
2022-12-03T10:57:34.112Z,28.75
2022-12-03T10:59:53.799Z,40.65
2022-12-03T11:02:22.697Z,34.22
2022-12-03T11:04:42.717Z,30.80
2022-12-03T11:07:11.111Z,43.85
2022-12-03T11:09:32.787Z,46.50
2022-12-03T11:11:53.333Z,35.05
2022-12-03T11:14:14.732Z,30.75
2022-12-03T11:16:41.180Z,37.65
2022-12-03T11:19:01.883Z,40.15
2022-12-03T11:21:22.919Z,30.27
2022-12-03T11:23:45.816Z,31.98
2022-12-03T11:26:05.550Z,30.48
2022-12-03T11:28:34.134Z,42.90
2022-12-03T11:31:01.676Z,38.63
2022-12-03T11:33:25.386Z,32.72
2022-12-03T11:36:03.880Z,44.83
2022-12-03T11:38:52.330Z,42.13
2022-12-03T11:41:28.125Z,40.40
2022-12-03T11:43:57.049Z,37.35
2022-12-03T11:46:22.486Z,30.58
2022-12-03T11:48:49.862Z,20.10
2022-12-03T11:51:14.174Z,24.23
2022-12-03T11:53:34.774Z,29.65
2022-12-03T11:56:08.402Z,31.05
2022-12-03T11:58:29.997Z,38.28
2022-12-03T12:00:51.935Z,33.53
2022-12-03T12:03:33.097Z,26.35
2022-12-03T12:06:03.561Z,20.63
2022-12-03T12:08:23.286Z,31.63
2022-12-03T12:10:44.744Z,56.13
2022-12-03T12:13:05.087Z,65.07
2022-12-03T12:15:41.831Z,57.22
2022-12-03T12:18:33.025Z,50.70
2022-12-03T12:20:53.025Z,42.05
2022-12-03T12:23:28.319Z,39.45
2022-12-03T12:25:53.743Z,143.32
2022-12-03T12:28:14.505Z,9.52
2022-12-03T12:30:34.648Z,9.73
2022-12-03T12:33:09.616Z,19.80
2022-12-03T12:35:32.133Z,18.98
2022-12-03T12:38:00.671Z,13.45
2022-12-03T12:40:26.112Z,12.43
2022-12-03T12:42:57.746Z,16.55
2022-12-03T12:45:19.316Z,15.27
2022-12-03T12:47:53.095Z,17.17
2022-12-03T12:50:14.194Z,15.13
2022-12-03T12:52:34.121Z,11.68
2022-12-03T12:54:53.869Z,22.52
2022-12-03T12:57:19.971Z,15.48
2022-12-03T12:59:39.794Z,16.08
2022-12-03T13:02:00.073Z,22.92
2022-12-03T13:04:23.605Z,17.90
2022-12-03T13:06:50.002Z,10.40
2022-12-03T13:09:16.439Z,13.88
2022-12-03T13:11:44.845Z,11.75
2022-12-03T13:14:21.265Z,16.98
2022-12-03T13:16:42.055Z,17.17
2022-12-03T13:19:02.234Z,18.08
2022-12-03T13:21:34.061Z,13.35
2022-12-03T13:23:56.481Z,8.98
2022-12-03T13:26:49.413Z,13.77
2022-12-03T13:29:14.698Z,14.43
2022-12-03T13:31:43.376Z,20.27
2022-12-03T13:34:18.839Z,17.17
2022-12-03T13:36:42.803Z,16.98
2022-12-03T13:39:13.038Z,18.42
2022-12-03T13:41:51.793Z,17.15
2022-12-03T13:44:18.923Z,16.73
2022-12-03T13:46:39.384Z,16.35
2022-12-03T13:49:01.836Z,14.95
2022-12-03T13:51:32.178Z,13.57
2022-12-03T13:53:53.528Z,13.35
2022-12-03T13:56:31.130Z,53.88
2022-12-03T13:58:51.001Z,137.15
2022-12-03T14:01:10.680Z,40.70
2022-12-03T14:03:30.700Z,56.05
2022-12-03T14:05:51.171Z,33.83
2022-12-03T14:08:10.855Z,31.85
2022-12-03T14:10:31.262Z,32.63
2022-12-03T14:12:51.143Z,41.58
2022-12-03T14:15:11.073Z,29.95
2022-12-03T14:17:31.308Z,26.70
2022-12-03T14:19:51.484Z,33.55
2022-12-03T14:22:11.562Z,35.20
2022-12-03T14:24:31.181Z,29.25
2022-12-03T14:26:50.824Z,28.52
2022-12-03T14:29:10.514Z,29.48
2022-12-03T14:31:30.335Z,37.15
2022-12-03T14:33:50.713Z,34.13
2022-12-03T14:36:11.078Z,33.05
2022-12-03T14:38:31.568Z,28.85
2022-12-03T14:40:52.718Z,35.00
2022-12-03T14:43:12.247Z,37.72
2022-12-03T14:45:34.486Z,36.97
2022-12-03T14:47:57.703Z,37.30
2022-12-03T14:50:17.409Z,34.92
2022-12-03T14:52:37.797Z,36.38
2022-12-03T14:54:57.754Z,34.72
2022-12-03T14:57:17.462Z,37.83
2022-12-03T14:59:37.033Z,34.67
2022-12-03T15:01:56.995Z,37.03
2022-12-03T15:04:17.191Z,36.33
2022-12-03T15:06:37.066Z,36.13
2022-12-03T15:08:56.813Z,27.60
2022-12-03T15:11:17.524Z,29.40
2022-12-03T15:13:37.214Z,26.13
2022-12-03T15:15:56.945Z,29.95
2022-12-03T15:18:16.538Z,29.80
2022-12-03T15:20:38.341Z,23.90
2022-12-03T15:22:58.362Z,28.15
2022-12-03T15:25:23.520Z,25.80
2022-12-03T15:27:43.129Z,27.63
2022-12-03T15:30:04.568Z,31.73
2022-12-03T15:32:24.424Z,35.10
2022-12-03T15:34:44.201Z,34.50
2022-12-03T15:37:03.809Z,30.50
2022-12-03T15:39:23.451Z,35.35
2022-12-03T15:41:43.669Z,38.20
2022-12-03T15:44:03.337Z,67.75
2022-12-03T15:46:24.098Z,75.63
2022-12-03T15:48:43.771Z,129.15
2022-12-03T15:51:03.486Z,52.65
2022-12-03T15:53:23.514Z,68.78
2022-12-03T15:55:43.046Z,65.80
2022-12-03T15:58:02.909Z,48.58
2022-12-03T16:00:22.809Z,49.53
2022-12-03T16:02:47.522Z,68.45
2022-12-03T16:05:12.707Z,72.68
2022-12-03T16:07:32.991Z,70.38
2022-12-03T16:09:53.936Z,60.53
2022-12-03T16:12:13.800Z,58.47
2022-12-03T16:14:33.311Z,53.08
2022-12-03T16:16:54.353Z,67.00
2022-12-03T16:19:14.254Z,100.57
2022-12-03T16:21:34.413Z,67.88
2022-12-03T16:23:54.982Z,118.00
2022-12-03T16:26:14.929Z,56.60
2022-12-03T16:28:34.973Z,72.90
2022-12-03T16:30:54.825Z,363.77
2022-12-03T16:33:14.916Z,305.63
2022-12-03T16:35:34.496Z,226.55
2022-12-03T16:37:54.272Z,313.30
2022-12-03T16:40:14.119Z,365.17
2022-12-03T16:42:36.275Z,260.27
2022-12-03T16:45:08.355Z,56.97
2022-12-03T16:47:33.649Z,217.95
2022-12-03T16:49:54.137Z,244.52
2022-12-03T16:52:14.139Z,265.88
2022-12-03T16:54:33.733Z,213.13
2022-12-03T16:56:53.427Z,258.67
2022-12-03T16:59:12.924Z,165.30
2022-12-03T17:01:32.677Z,244.00
2022-12-03T17:03:52.700Z,67.15
2022-12-03T17:06:12.425Z,307.27
2022-12-03T17:08:31.972Z,285.33
2022-12-03T17:10:51.817Z,96.82
2022-12-03T17:13:11.985Z,205.00
2022-12-03T17:15:32.011Z,164.18
2022-12-03T17:17:51.942Z,100.82
2022-12-03T17:20:13.861Z,89.82
2022-12-03T17:22:33.972Z,79.28
2022-12-03T17:24:54.836Z,105.20
2022-12-03T17:27:15.137Z,129.82
2022-12-03T17:29:35.139Z,142.88
2022-12-03T17:31:54.860Z,137.05
2022-12-03T17:34:15.062Z,99.57
2022-12-03T17:36:34.860Z,68.57
2022-12-03T17:38:54.447Z,54.40
2022-12-03T17:41:14.384Z,46.38
2022-12-03T17:43:34.598Z,34.65
2022-12-03T17:45:54.292Z,31.40
2022-12-03T17:48:13.989Z,28.15
2022-12-03T17:50:34.125Z,29.77
2022-12-03T17:52:53.672Z,36.40
2022-12-03T17:55:21.612Z,33.45
2022-12-03T17:57:45.996Z,32.47
2022-12-03T18:00:06.460Z,38.22
2022-12-03T18:02:26.596Z,37.25
2022-12-03T18:04:46.202Z,58.28
2022-12-03T18:07:06.596Z,46.33
2022-12-03T18:09:26.609Z,64.70
2022-12-03T18:11:46.302Z,50.15
2022-12-03T18:14:06.457Z,76.53
2022-12-03T18:16:29.527Z,86.25
2022-12-03T18:21:13.867Z,85.50
2022-12-03T18:23:34.669Z,353.50
2022-12-03T18:25:55.098Z,191.02
2022-12-03T18:28:14.609Z,343.05
2022-12-03T18:30:34.410Z,482.77
2022-12-03T18:32:54.409Z,486.25
2022-12-03T18:35:14.136Z,580.60
2022-12-03T18:37:33.995Z,481.25
2022-12-03T18:39:54.707Z,581.60
2022-12-03T18:42:20.260Z,569.72
2022-12-03T18:44:42.691Z,535.45
2022-12-03T18:47:19.916Z,370.92
2022-12-03T18:49:40.167Z,184.90
2022-12-03T18:52:00.139Z,225.65
2022-12-03T18:54:19.694Z,358.48
2022-12-03T18:56:40.499Z,223.20
2022-12-03T18:59:00.059Z,31.58
2022-12-03T19:01:21.911Z,35.00
2022-12-03T19:03:41.674Z,31.27
2022-12-03T19:06:01.384Z,36.35
2022-12-03T19:08:20.991Z,28.63
2022-12-03T19:10:42.317Z,74.38
2022-12-03T19:13:03.189Z,92.30
2022-12-03T19:15:23.329Z,48.33
2022-12-03T19:17:50.257Z,52.55
2022-12-03T19:20:11.178Z,20.70
2022-12-03T19:22:30.863Z,28.50
2022-12-03T19:24:50.380Z,20.83
2022-12-03T19:27:09.858Z,22.25
2022-12-03T19:29:29.380Z,21.80
2022-12-03T19:31:50.409Z,30.40
2022-12-03T19:34:10.329Z,23.95
2022-12-03T19:36:31.598Z,28.25
2022-12-03T19:38:57.245Z,32.13
2022-12-03T19:41:19.097Z,26.92
2022-12-03T19:43:39.068Z,26.60
2022-12-03T19:46:09.403Z,31.83
2022-12-03T19:48:30.791Z,36.90
2022-12-03T19:51:07.625Z,50.15
2022-12-03T19:53:33.303Z,48.63
2022-12-03T19:55:54.510Z,52.95
2022-12-03T19:58:14.642Z,113.28
2022-12-03T20:00:35.196Z,130.43
2022-12-03T20:02:55.341Z,211.20
2022-12-03T20:05:15.552Z,164.10
2022-12-03T20:07:35.322Z,145.93
2022-12-03T20:09:55.564Z,143.25
2022-12-03T20:12:15.608Z,47.65
2022-12-03T20:14:35.170Z,29.42
2022-12-03T20:16:54.747Z,28.52
2022-12-03T20:19:16.693Z,32.90
2022-12-03T20:21:37.715Z,27.73
2022-12-03T20:23:57.789Z,28.42
2022-12-03T20:26:19.871Z,25.02
2022-12-03T20:28:40.870Z,25.25
2022-12-03T20:31:04.009Z,19.13
2022-12-03T20:33:23.944Z,24.77
2022-12-03T20:35:43.727Z,22.58
2022-12-03T20:38:04.768Z,24.08
2022-12-03T20:40:24.519Z,27.08
2022-12-03T20:42:47.619Z,34.80
2022-12-03T20:45:08.442Z,27.30
2022-12-03T20:47:28.192Z,31.38
2022-12-03T20:49:47.932Z,38.63
2022-12-03T20:52:08.192Z,24.08
2022-12-03T20:54:27.789Z,22.75
2022-12-03T20:56:47.491Z,38.50
2022-12-03T20:59:14.405Z,34.15
2022-12-03T21:01:35.293Z,28.25
2022-12-03T21:03:56.508Z,30.80
2022-12-03T21:06:16.601Z,27.90
2022-12-03T21:08:41.589Z,35.40
2022-12-03T21:11:01.752Z,43.22
2022-12-03T21:13:21.650Z,51.13
2022-12-03T21:15:41.956Z,103.82
2022-12-03T21:18:01.631Z,69.97
2022-12-03T21:20:21.837Z,54.38
2022-12-03T21:22:41.787Z,36.60
2022-12-03T21:25:01.748Z,29.20
2022-12-03T21:27:22.123Z,45.75
2022-12-03T21:29:42.104Z,43.45
2022-12-03T21:32:01.893Z,41.70
2022-12-03T21:34:21.404Z,39.33
2022-12-03T21:36:41.269Z,23.17
2022-12-03T21:39:00.784Z,25.40
2022-12-03T21:41:21.057Z,19.15
2022-12-03T21:43:41.480Z,11.88
2022-12-03T21:47:10.048Z,12.15
2022-12-03T21:48:47.790Z,13.32
2022-12-03T21:51:10.979Z,17.45
2022-12-03T21:53:32.048Z,12.48
2022-12-03T21:55:52.239Z,9.98
2022-12-03T21:58:12.177Z,18.90
2022-12-03T22:00:31.992Z,11.35
2022-12-03T22:02:52.183Z,10.63
2022-12-03T22:05:12.084Z,11.52
2022-12-03T22:07:33.119Z,14.50
2022-12-03T22:09:53.435Z,15.50
2022-12-03T22:12:13.518Z,13.80
2022-12-03T22:14:33.239Z,15.05
2022-12-03T22:16:52.831Z,9.18
2022-12-03T22:19:12.240Z,10.75
2022-12-03T22:21:32.149Z,10.75
2022-12-03T22:23:52.348Z,14.93
2022-12-03T22:26:14.690Z,12.55
2022-12-03T22:28:35.105Z,11.40
2022-12-03T22:30:55.091Z,10.25
2022-12-03T22:33:15.008Z,10.90
2022-12-03T22:35:34.748Z,6.43
2022-12-03T22:37:54.878Z,7.28
2022-12-03T22:40:14.858Z,8.95
2022-12-03T22:42:34.506Z,10.65
2022-12-03T22:44:54.321Z,8.73
2022-12-03T22:47:13.993Z,9.07
2022-12-03T22:49:33.505Z,10.38
2022-12-03T22:51:53.079Z,10.68
2022-12-03T22:54:13.850Z,13.13
2022-12-03T22:56:34.018Z,14.63
2022-12-03T22:58:54.491Z,15.10
2022-12-03T23:01:29.160Z,13.35
2022-12-03T23:03:49.510Z,8.60
2022-12-03T23:06:10.951Z,13.07
2022-12-03T23:08:30.460Z,22.20
2022-12-03T23:10:51.629Z,19.17
2022-12-03T23:13:12.484Z,11.82
2022-12-03T23:15:32.850Z,9.45
2022-12-03T23:17:52.786Z,10.98
2022-12-03T23:20:13.241Z,10.77
2022-12-03T23:22:32.908Z,9.10
2022-12-03T23:24:52.377Z,10.27
2022-12-03T23:27:11.915Z,9.88
2022-12-03T23:29:34.024Z,10.90
2022-12-03T23:31:53.563Z,9.27
2022-12-03T23:34:13.195Z,9.13
2022-12-03T23:36:33.696Z,9.27
2022-12-03T23:38:54.015Z,8.63
2022-12-03T23:41:16.105Z,6.28
2022-12-03T23:43:35.717Z,7.05
2022-12-03T23:46:05.646Z,8.25
2022-12-03T23:48:27.601Z,6.03
2022-12-03T23:50:47.774Z,5.63
2022-12-03T23:53:07.915Z,6.53
2022-12-03T23:55:27.597Z,6.15
2022-12-03T23:57:47.328Z,4.60
